Time;durP1;ratioP1;P1;durP2;ratioP2;P2;SDS_P1;SDS_P2;PMS_P1;PMS_P2;Temp;Humidity;BMP_temperature;BMP_pressure;BME280_temperature;BME280_humidity;BME280_pressure;Samples;Min_cycle;Max_cycle;Signal;HPM_P1;HPM_P2
2022/12/22 03:27:15;;;;;;;212.20;63.30;;;7.30;99.90;;;;;;5038290;28;20450;-69
2022/12/22 03:29:41;;;;;;;270.58;68.60;;;7.40;99.90;;;;;;5037456;28;20124;-69
2022/12/22 03:32:07;;;;;;;322.05;73.53;;;7.30;99.90;;;;;;5037817;28;20060;-68
2022/12/22 03:34:32;;;;;;;341.48;74.75;;;8.60;99.90;;;;;;5037355;28;20047;-67
2022/12/22 03:36:58;;;;;;;275.38;67.35;;;8.60;99.90;;;;;;5034823;28;20072;-67
2022/12/22 03:39:24;;;;;;;324.90;66.38;;;7.60;99.90;;;;;;5036381;28;20384;-68
2022/12/22 03:47:18;;;;;;;289.10;70.30;;;8.80;99.90;;;;;;5035183;28;20052;-69
2022/12/22 03:49:43;;;;;;;279.75;68.70;;;8.90;99.90;;;;;;5020643;28;20408;-69
2022/12/22 03:52:09;;;;;;;270.20;68.53;;;7.80;99.90;;;;;;5018208;28;20049;-68
2022/12/22 03:54:35;;;;;;;264.48;66.63;;;7.20;99.90;;;;;;5019790;28;20044;-68
2022/12/22 03:57:01;;;;;;;325.90;67.32;;;8.90;99.90;;;;;;5036551;28;20528;-67
2022/12/22 03:59:27;;;;;;;232.07;63.22;;;7.40;99.90;;;;;;5004260;28;20041;-68
2022/12/22 04:01:53;;;;;;;320.73;70.97;;;8.60;99.90;;;;;;5019152;28;20075;-68
2022/12/22 04:04:22;;;;;;;269.48;68.50;;;8.70;99.90;;;;;;5020329;28;20106;-69
2022/12/22 04:06:48;;;;;;;319.38;69.60;;;8.70;99.90;;;;;;5066557;28;20678;-69
2022/12/22 04:09:14;;;;;;;379.35;75.97;;;7.40;99.90;;;;;;5019476;28;20040;-69
2022/12/22 04:14:24;;;;;;;331.02;74.55;;;7.40;99.90;;;;;;5036510;28;20045;-69
2022/12/22 04:16:50;;;;;;;343.38;75.18;;;7.80;99.90;;;;;;5036932;28;20037;-69
2022/12/22 04:19:16;;;;;;;341.55;70.03;;;9.10;99.90;;;;;;5067586;28;20594;-69
2022/12/22 04:21:42;;;;;;;333.25;72.88;;;8.70;99.90;;;;;;5003932;28;20037;-69
2022/12/22 04:24:10;;;;;;;380.27;76.20;;;7.30;99.90;;;;;;5001061;28;20580;-69
2022/12/22 04:26:36;;;;;;;374.33;75.10;;;8.60;99.90;;;;;;5048817;28;20044;-69
2022/12/22 04:29:02;;;;;;;329.67;69.85;;;7.50;99.90;;;;;;5037029;28;20111;-68
2022/12/22 04:31:28;;;;;;;361.10;76.20;;;7.30;99.90;;;;;;5068209;28;20041;-69
2022/12/22 04:33:54;;;;;;;330.13;73.55;;;7.30;99.90;;;;;;5035104;28;20048;-68
2022/12/22 04:36:19;;;;;;;261.70;62.10;;;9.10;99.90;;;;;;5036133;28;20099;-68
2022/12/22 04:38:45;;;;;;;251.25;65.85;;;9.10;99.90;;;;;;5000611;28;21116;-68
2022/12/22 04:41:11;;;;;;;312.48;69.90;;;7.30;99.90;;;;;;5017941;28;20041;-69
2022/12/22 04:43:37;;;;;;;344.23;71.07;;;7.50;99.90;;;;;;5019103;28;20040;-69
2022/12/22 04:46:03;;;;;;;279.90;66.03;;;9.10;99.90;;;;;;5020067;28;20044;-68
2022/12/22 04:48:30;;;;;;;296.33;66.18;;;8.40;99.90;;;;;;5017512;28;20053;-69
2022/12/22 04:50:57;;;;;;;298.88;68.70;;;8.70;99.90;;;;;;5035467;28;20137;-69
2022/12/22 04:53:24;;;;;;;381.13;74.55;;;7.50;99.90;;;;;;5050949;28;20126;-69
2022/12/22 04:55:55;;;;;;;348.65;68.75;;;8.80;99.90;;;;;;5017069;28;20048;-69
2022/12/22 04:58:21;;;;;;;346.58;71.90;;;8.80;99.90;;;;;;5050400;28;20052;-69
2022/12/22 05:00:46;;;;;;;263.40;62.45;;;7.40;99.90;;;;;;5036192;28;20037;-67
2022/12/22 05:03:12;;;;;;;296.30;67.35;;;7.50;99.90;;;;;;5036727;28;20207;-67
2022/12/22 05:05:38;;;;;;;299.83;67.78;;;8.80;99.90;;;;;;5019525;28;20044;-67
2022/12/22 05:08:05;;;;;;;333.95;75.03;;;7.40;99.90;;;;;;5020254;28;20052;-67
2022/12/22 05:10:31;;;;;;;269.02;65.82;;;7.40;99.90;;;;;;5050885;28;20049;-68
2022/12/22 05:12:57;;;;;;;246.60;61.67;;;9.00;99.90;;;;;;5066481;28;20497;-67
2022/12/22 05:15:28;;;;;;;271.23;67.47;;;8.90;99.90;;;;;;5037114;28;20095;-66
2022/12/22 05:17:55;;;;;;;263.70;63.97;;;7.40;99.90;;;;;;5037716;28;20140;-67
2022/12/22 05:20:22;;;;;;;235.48;62.92;;;7.20;99.90;;;;;;5034809;28;20060;-69
2022/12/22 05:22:48;;;;;;;214.63;60.53;;;8.70;99.90;;;;;;5037495;28;20566;-69
2022/12/22 05:25:18;;;;;;;212.77;59.47;;;8.70;99.90;;;;;;5019698;28;20033;-68
2022/12/22 05:27:45;;;;;;;207.98;59.47;;;8.90;99.90;;;;;;5064344;28;20105;-68
2022/12/22 05:30:13;;;;;;;228.32;59.25;;;8.60;99.90;;;;;;5036687;28;20041;-68
2022/12/22 05:32:39;;;;;;;182.13;59.22;;;8.60;99.90;;;;;;5067650;28;20552;-68
2022/12/22 05:35:06;;;;;;;160.23;53.25;;;8.50;99.90;;;;;;5048927;28;20274;-67
2022/12/22 05:37:31;;;;;;;130.15;48.90;;;8.20;99.90;;;;;;5033659;28;20220;-67
2022/12/22 05:39:58;;;;;;;129.38;47.88;;;8.00;99.90;;;;;;5036441;28;20041;-68
2022/12/22 05:42:36;;;;;;;136.57;47.45;;;8.60;99.90;;;;;;5032362;28;20052;-66
2022/12/22 05:45:05;;;;;;;147.73;51.40;;;8.70;99.90;;;;;;5034811;28;20053;-66
2022/12/22 05:47:31;;;;;;;149.50;49.63;;;7.30;99.90;;;;;;5034870;28;20041;-68
2022/12/22 05:49:57;;;;;;;119.65;44.33;;;7.40;99.90;;;;;;5017376;28;20074;-67
2022/12/22 05:52:22;;;;;;;155.60;50.38;;;6.80;99.90;;;;;;5065073;28;20165;-68
2022/12/22 05:54:48;;;;;;;130.70;48.83;;;7.00;99.90;;;;;;5018018;28;20181;-67
2022/12/22 05:57:14;;;;;;;146.02;49.95;;;7.70;99.90;;;;;;5017622;28;20122;-68
2022/12/22 05:59:40;;;;;;;149.10;48.08;;;6.80;99.90;;;;;;5013806;28;20073;-67
2022/12/22 06:02:05;;;;;;;123.28;43.88;;;8.30;99.90;;;;;;5034759;28;20048;-67
2022/12/22 06:04:31;;;;;;;123.68;44.10;;;7.30;99.90;;;;;;5035002;28;20482;-67
2022/12/22 06:06:57;;;;;;;130.52;46.83;;;7.90;99.90;;;;;;5017090;28;20290;-66
2022/12/22 06:09:22;;;;;;;101.53;41.20;;;6.30;99.90;;;;;;5035262;28;20055;-67
2022/12/22 06:11:48;;;;;;;108.13;39.72;;;6.80;99.90;;;;;;5019029;28;20548;-66
2022/12/22 06:14:13;;;;;;;98.28;40.05;;;8.00;99.90;;;;;;5030317;28;20049;-68
2022/12/22 06:16:39;;;;;;;108.45;38.97;;;7.80;99.90;;;;;;5034209;28;20045;-68
2022/12/22 06:19:05;;;;;;;127.15;39.92;;;6.50;99.90;;;;;;5034421;28;20083;-67
2022/12/22 06:21:31;;;;;;;149.77;42.97;;;6.50;99.90;;;;;;5033896;28;20102;-73
2022/12/22 06:23:57;;;;;;;154.13;47.90;;;7.40;99.90;;;;;;5034783;28;20045;-66
2022/12/22 06:26:22;;;;;;;146.45;46.80;;;7.20;99.90;;;;;;5035811;28;20128;-67
2022/12/22 06:28:48;;;;;;;150.68;46.08;;;5.80;99.90;;;;;;5001174;28;20044;-65
2022/12/22 06:31:14;;;;;;;147.13;43.58;;;6.40;99.90;;;;;;5014646;28;20640;-66
2022/12/22 06:33:39;;;;;;;194.80;47.90;;;5.60;99.90;;;;;;5035101;28;20581;-66
2022/12/22 06:36:07;;;;;;;151.57;45.38;;;6.90;99.90;;;;;;5037030;28;20051;-67
2022/12/22 06:38:33;;;;;;;260.13;50.03;;;5.50;99.90;;;;;;5034224;28;20494;-67
2022/12/22 06:40:58;;;;;;;245.52;46.70;;;6.30;99.90;;;;;;5019403;28;20063;-64
2022/12/22 06:43:25;;;;;;;236.38;51.38;;;5.90;99.90;;;;;;5002060;28;20045;-65
2022/12/22 06:45:51;;;;;;;184.65;44.67;;;5.50;99.90;;;;;;5031339;28;20036;-65
2022/12/22 06:48:17;;;;;;;186.98;46.15;;;6.70;99.90;;;;;;5019669;28;20036;-67
2022/12/22 06:50:42;;;;;;;207.68;48.67;;;5.80;99.90;;;;;;5068216;28;20908;-66
2022/12/22 06:53:09;;;;;;;315.67;53.53;;;6.60;99.90;;;;;;5018876;28;20048;-67
2022/12/22 06:55:35;;;;;;;340.20;51.25;;;5.70;99.90;;;;;;5071133;28;20159;-68
2022/12/22 06:58:01;;;;;;;264.20;49.53;;;5.80;99.90;;;;;;5039631;28;20040;-68
2022/12/22 07:00:27;;;;;;;311.63;53.13;;;5.10;99.90;;;;;;5036993;28;20036;-68
2022/12/22 07:02:53;;;;;;;389.60;56.15;;;6.20;99.90;;;;;;5019301;28;20048;-70
2022/12/22 07:05:18;;;;;;;346.27;53.40;;;5.10;99.90;;;;;;5038299;28;20037;-66
2022/12/22 07:07:44;;;;;;;298.92;48.25;;;4.80;99.90;;;;;;5004350;28;20040;-66
2022/12/22 07:10:11;;;;;;;261.70;46.15;;;4.80;99.90;;;;;;5036841;28;20133;-67
2022/12/22 07:12:37;;;;;;;240.90;48.28;;;5.30;99.90;;;;;;5038196;28;20088;-67
2022/12/22 07:15:03;;;;;;;230.85;50.55;;;6.20;99.90;;;;;;5021210;28;20116;-66
2022/12/22 07:17:29;;;;;;;197.40;48.72;;;6.10;99.90;;;;;;5034044;28;20061;-65
2022/12/22 07:19:54;;;;;;;207.07;47.55;;;5.50;99.90;;;;;;5040903;28;20053;-66
2022/12/22 07:22:20;;;;;;;253.65;51.83;;;6.10;99.90;;;;;;5038722;28;20776;-67
2022/12/22 07:24:46;;;;;;;210.30;48.92;;;6.20;99.90;;;;;;5002844;28;20044;-68
2022/12/22 07:27:12;;;;;;;325.20;52.90;;;5.30;99.90;;;;;;5022070;28;20040;-65
2022/12/22 07:29:39;;;;;;;208.07;45.80;;;5.20;99.90;;;;;;5005410;28;20370;-66
2022/12/22 07:32:05;;;;;;;196.80;47.15;;;5.10;99.90;;;;;;5037260;28;20449;-68
2022/12/22 07:34:31;;;;;;;195.52;46.30;;;6.30;99.90;;;;;;5037428;28;20068;-68
2022/12/22 07:36:56;;;;;;;193.18;48.58;;;5.50;99.90;;;;;;5052250;28;20487;-68
2022/12/22 07:39:22;;;;;;;175.57;45.88;;;6.30;99.90;;;;;;5036164;28;20147;-67
2022/12/22 07:44:32;;;;;;;199.60;45.38;;;6.20;99.90;;;;;;5037160;28;20052;-68
2022/12/22 07:46:58;;;;;;;201.48;44.47;;;6.40;99.90;;;;;;5034364;28;20045;-67
2022/12/22 07:52:08;;;;;;;223.18;42.45;;;6.40;99.90;;;;;;5023332;28;20368;-68
2022/12/22 07:54:34;;;;;;;274.33;48.85;;;5.30;99.90;;;;;;5017928;28;20270;-68
2022/12/22 07:57:00;;;;;;;257.75;45.97;;;5.50;99.90;;;;;;5051942;28;20045;-69
2022/12/22 07:59:26;;;;;;;278.83;48.15;;;6.50;99.90;;;;;;5038383;28;20544;-66
2022/12/22 08:01:51;;;;;;;295.70;49.17;;;6.50;99.90;;;;;;5037054;28;20095;-67
2022/12/22 08:04:18;;;;;;;293.30;50.58;;;5.20;99.90;;;;;;5034611;28;20052;-67
2022/12/22 08:06:44;;;;;;;300.20;49.53;;;6.00;99.90;;;;;;5018054;28;20053;-67
2022/12/22 08:09:16;;;;;;;353.45;50.53;;;6.60;99.90;;;;;;5036783;28;20412;-67
2022/12/22 08:11:42;;;;;;;395.75;53.92;;;5.80;99.90;;;;;;5068183;28;20386;-66
2022/12/22 08:14:07;;;;;;;498.02;55.42;;;6.50;99.90;;;;;;5037185;28;20962;-67
2022/12/22 08:16:33;;;;;;;665.67;60.60;;;6.00;99.90;;;;;;5036938;28;20103;-66
2022/12/22 08:18:59;;;;;;;668.10;60.33;;;6.30;99.90;;;;;;5018390;28;20059;-68
2022/12/22 08:21:25;;;;;;;728.72;56.80;;;5.30;99.90;;;;;;5005638;28;20191;-68
2022/12/22 08:23:50;;;;;;;721.63;55.95;;;5.40;99.90;;;;;;5033896;28;20123;-66
2022/12/22 08:26:29;;;;;;;755.67;55.58;;;6.60;99.90;;;;;;5028375;28;20041;-67
2022/12/22 08:29:00;;;;;;;873.65;61.80;;;5.90;99.90;;;;;;5034524;28;20045;-66
2022/12/22 08:31:28;;;;;;;668.25;53.72;;;6.00;99.90;;;;;;5018316;28;20455;-67
2022/12/22 08:33:55;;;;;;;586.72;47.38;;;6.40;99.90;;;;;;5032993;28;20067;-67
2022/12/22 08:36:21;;;;;;;420.77;41.95;;;6.60;99.90;;;;;;5046518;28;20040;-65
2022/12/22 08:38:47;;;;;;;536.88;44.92;;;6.40;99.90;;;;;;5036651;28;20383;-66
2022/12/22 08:41:15;;;;;;;566.78;48.90;;;6.50;99.90;;;;;;5018010;28;20453;-66
2022/12/22 08:43:40;;;;;;;569.00;48.22;;;6.30;99.90;;;;;;5018067;28;20418;-65
2022/12/22 08:46:06;;;;;;;464.95;41.13;;;5.30;99.90;;;;;;5036482;28;20041;-66
2022/12/22 08:48:32;;;;;;;364.42;32.88;;;6.10;99.90;;;;;;5034836;28;20490;-66
2022/12/22 08:50:58;;;;;;;523.83;44.70;;;5.40;99.90;;;;;;5001263;28;20491;-66
2022/12/22 08:53:23;;;;;;;523.85;49.00;;;6.50;99.90;;;;;;5031794;28;20048;-66
2022/12/22 08:55:51;;;;;;;547.20;46.20;;;6.00;99.90;;;;;;5001994;28;20053;-67
2022/12/22 08:58:17;;;;;;;475.77;47.05;;;6.10;99.90;;;;;;5000781;28;20502;-68
2022/12/22 09:00:43;;;;;;;350.13;42.30;;;5.90;99.90;;;;;;5036453;28;20140;-67
2022/12/22 09:03:09;;;;;;;347.45;44.45;;;5.50;99.90;;;;;;5018361;28;20041;-68
2022/12/22 09:05:37;;;;;;;304.48;41.65;;;5.40;99.90;;;;;;5033829;28;20127;-68
2022/12/22 09:08:06;;;;;;;317.52;42.03;;;5.80;99.90;;;;;;5016078;28;20056;-68
2022/12/22 09:10:32;;;;;;;344.42;44.17;;;5.50;99.90;;;;;;5034931;28;20332;-67
2022/12/22 09:13:01;;;;;;;337.55;44.22;;;5.80;99.90;;;;;;5034030;28;20137;-65
2022/12/22 09:15:27;;;;;;;403.92;48.22;;;5.50;99.90;;;;;;5033502;28;21008;-65
2022/12/22 09:17:53;;;;;;;378.17;47.15;;;6.90;99.90;;;;;;5034846;28;20111;-65
2022/12/22 09:20:18;;;;;;;363.50;41.40;;;5.70;99.90;;;;;;5031146;28;20049;-65
2022/12/22 09:22:44;;;;;;;360.50;46.72;;;5.50;99.90;;;;;;5034021;28;20139;-65
2022/12/22 09:25:09;;;;;;;319.67;46.08;;;6.60;99.90;;;;;;5032495;28;20379;-66
2022/12/22 09:27:35;;;;;;;298.85;46.60;;;7.00;99.90;;;;;;5032880;28;20540;-66
2022/12/22 09:30:01;;;;;;;272.05;44.08;;;6.80;99.90;;;;;;5034777;28;20076;-66
2022/12/22 09:32:27;;;;;;;283.55;46.50;;;6.90;99.90;;;;;;5018545;28;20084;-66
2022/12/22 09:34:53;;;;;;;222.73;42.15;;;6.40;99.90;;;;;;5034005;28;20051;-67
2022/12/22 09:37:18;;;;;;;210.38;42.22;;;6.70;99.90;;;;;;5017035;28;20052;-66
2022/12/22 09:39:45;;;;;;;183.55;39.17;;;6.00;99.90;;;;;;5016115;28;20140;-66
2022/12/22 09:42:18;;;;;;;205.00;38.15;;;5.90;99.90;;;;;;5031930;28;20187;-67
2022/12/22 09:44:49;;;;;;;191.55;38.25;;;7.10;99.90;;;;;;5031904;28;20033;-67
2022/12/22 09:47:25;;;;;;;182.52;36.95;;;7.10;99.90;;;;;;5032942;28;20433;-67
2022/12/22 09:49:51;;;;;;;170.77;38.38;;;6.90;99.90;;;;;;5033694;28;20481;-67
2022/12/22 09:52:43;;;;;;;169.35;38.10;;;6.80;99.90;;;;;;5030795;28;20371;-67
2022/12/22 09:55:25;;;;;;;131.73;34.47;;;5.70;99.90;;;;;;5062017;28;20140;-68
2022/12/22 09:57:54;;;;;;;141.48;36.35;;;5.80;99.90;;;;;;5063451;28;20320;-68
2022/12/22 10:00:25;;;;;;;153.77;36.80;;;5.90;99.90;;;;;;5033261;28;20045;-66
2022/12/22 10:02:57;;;;;;;118.25;33.83;;;7.30;99.90;;;;;;5066376;28;20566;-67
2022/12/22 10:05:37;;;;;;;130.13;35.70;;;6.30;99.90;;;;;;5032360;28;20041;-66
2022/12/22 10:08:10;;;;;;;127.60;36.28;;;6.30;99.90;;;;;;5063858;28;20049;-66
2022/12/22 10:10:35;;;;;;;120.53;35.92;;;6.30;99.90;;;;;;5033466;28;20128;-67
2022/12/22 10:13:03;;;;;;;111.55;35.95;;;6.50;99.90;;;;;;5014862;28;20059;-67
2022/12/22 10:15:38;;;;;;;86.78;29.27;;;7.50;99.90;;;;;;5031486;28;20195;-67
2022/12/22 10:18:10;;;;;;;78.40;28.25;;;7.70;99.90;;;;;;5033466;28;20117;-68
2022/12/22 10:20:38;;;;;;;90.25;30.10;;;7.70;99.90;;;;;;5032334;28;20298;-67
2022/12/22 10:23:17;;;;;;;74.32;25.95;;;7.10;99.90;;;;;;5032015;28;20055;-67
2022/12/22 10:26:04;;;;;;;58.47;24.08;;;7.90;99.90;;;;;;5034277;28;20717;-67
2022/12/22 10:28:37;;;;;;;59.72;22.58;;;7.30;99.90;;;;;;5035768;28;20341;-68
2022/12/22 10:31:10;;;;;;;51.33;21.95;;;7.60;99.90;;;;;;5034722;28;20049;-68
2022/12/22 10:33:38;;;;;;;44.70;19.42;;;8.40;99.90;;;;;;5019648;28;20040;-68
2022/12/22 10:36:05;;;;;;;34.85;15.45;;;7.90;99.90;;;;;;5036717;28;20459;-69
2022/12/22 10:38:34;;;;;;;29.02;14.95;;;8.20;99.90;;;;;;5017714;28;20328;-68
2022/12/22 10:41:15;;;;;;;30.90;14.70;;;9.00;99.90;;;;;;5037177;28;20047;-69
2022/12/22 10:43:58;;;;;;;26.40;13.85;;;8.50;99.90;;;;;;5033132;28;20498;-68
2022/12/22 10:46:32;;;;;;;22.98;12.50;;;8.90;99.90;;;;;;5017910;28;20032;-69
2022/12/22 10:49:17;;;;;;;26.70;11.38;;;9.30;99.90;;;;;;5036251;28;20209;-67
2022/12/22 10:51:45;;;;;;;23.58;11.30;;;9.40;99.90;;;;;;5036418;28;20268;-67
2022/12/22 10:54:28;;;;;;;19.13;11.45;;;9.50;99.90;;;;;;5018278;28;20063;-67
2022/12/22 10:57:18;;;;;;;18.35;9.80;;;9.20;99.90;;;;;;5038173;28;20174;-67
2022/12/22 10:59:56;;;;;;;21.58;11.80;;;9.00;99.90;;;;;;5033465;28;21315;-67
2022/12/22 11:02:36;;;;;;;24.13;11.85;;;8.70;99.90;;;;;;5035728;28;20049;-67
2022/12/22 11:05:11;;;;;;;22.52;11.82;;;8.70;99.90;;;;;;5037738;28;20053;-68
2022/12/22 11:07:42;;;;;;;19.80;10.50;;;8.90;99.90;;;;;;5003636;28;20755;-68
2022/12/22 11:10:34;;;;;;;19.75;9.77;;;8.40;99.90;;;;;;5020182;28;20581;-68
2022/12/22 11:13:09;;;;;;;18.48;9.85;;;8.20;99.90;;;;;;5038671;28;20043;-68
2022/12/22 11:15:40;;;;;;;20.35;9.38;;;8.20;99.90;;;;;;5034915;28;20044;-68
2022/12/22 11:18:21;;;;;;;17.58;9.48;;;8.20;99.90;;;;;;5036233;28;20063;-66
2022/12/22 11:21:13;;;;;;;17.92;9.63;;;9.00;99.90;;;;;;5020126;28;20051;-68
2022/12/22 11:24:05;;;;;;;20.15;8.88;;;9.20;99.90;;;;;;5036980;28;20084;-68
2022/12/22 11:26:54;;;;;;;17.95;9.15;;;8.90;99.90;;;;;;5068055;28;20843;-67
2022/12/22 11:29:44;;;;;;;16.92;7.63;;;9.40;99.90;;;;;;5037792;28;20049;-67
2022/12/22 11:32:20;;;;;;;17.45;7.50;;;9.60;99.90;;;;;;5017005;28;20513;-66
2022/12/22 11:35:01;;;;;;;15.02;7.57;;;10.30;99.90;;;;;;5053890;28;20809;-66
2022/12/22 11:38:05;;;;;;;13.50;5.70;;;10.70;99.90;;;;;;5036448;28;20786;-69
2022/12/22 11:40:37;;;;;;;16.77;6.72;;;10.80;99.90;;;;;;5035231;28;20509;-69
2022/12/22 11:43:02;;;;;;;15.35;6.15;;;10.60;99.90;;;;;;5020339;28;20185;-69
2022/12/22 11:46:00;;;;;;;14.77;6.43;;;11.00;99.90;;;;;;5018874;28;20314;-69
2022/12/22 11:48:50;;;;;;;13.63;5.20;;;10.90;99.90;;;;;;5033798;28;20429;-69
2022/12/22 11:51:31;;;;;;;12.60;5.05;;;11.50;99.90;;;;;;5037189;28;20376;-69
2022/12/22 11:54:03;;;;;;;9.77;4.18;;;11.60;99.90;;;;;;5037022;28;20444;-67
2022/12/22 11:56:39;;;;;;;15.30;5.68;;;11.60;99.90;;;;;;5037596;28;20534;-67
2022/12/22 11:59:33;;;;;;;13.60;4.55;;;11.00;99.90;;;;;;5020227;28;20049;-66
2022/12/22 12:02:11;;;;;;;14.98;5.22;;;10.50;99.90;;;;;;5036431;28;20604;-67
2022/12/22 12:05:12;;;;;;;16.88;5.75;;;10.40;99.90;;;;;;5034170;28;20055;-68
2022/12/22 12:07:44;;;;;;;15.55;5.80;;;10.00;99.90;;;;;;5035901;28;20052;-69
2022/12/22 12:10:37;;;;;;;16.45;5.93;;;9.80;99.90;;;;;;5035377;28;20214;-69
2022/12/22 12:13:19;;;;;;;12.60;5.82;;;9.90;99.90;;;;;;5064956;28;20051;-69
2022/12/22 12:15:52;;;;;;;13.68;5.57;;;10.60;99.90;;;;;;5019210;28;20040;-68
2022/12/22 12:18:55;;;;;;;12.13;5.00;;;11.60;99.90;;;;;;5032370;28;20302;-68
2022/12/22 12:21:34;;;;;;;15.93;6.72;;;11.70;99.90;;;;;;5033696;28;20409;-68
2022/12/22 12:24:31;;;;;;;16.48;6.35;;;12.20;99.90;;;;;;5035729;28;20060;-68
2022/12/22 12:27:04;;;;;;;11.07;4.80;;;12.30;99.90;;;;;;5025768;28;20497;-68
2022/12/22 12:30:04;;;;;;;15.75;5.78;;;12.40;99.90;;;;;;5023850;28;20049;-67
2022/12/22 12:32:38;;;;;;;12.70;4.97;;;12.10;84.30;;;;;;5030521;28;20067;-67
2022/12/22 12:35:20;;;;;;;13.43;4.75;;;11.60;99.90;;;;;;5014111;28;20049;-67
2022/12/22 12:37:54;;;;;;;12.18;4.45;;;11.40;99.90;;;;;;5066785;28;20051;-67
2022/12/22 12:40:42;;;;;;;11.23;3.85;;;11.10;99.90;;;;;;5035240;28;20664;-67
2022/12/22 12:43:11;;;;;;;13.70;4.00;;;10.60;99.90;;;;;;5048265;28;20033;-67
2022/12/22 12:45:41;;;;;;;11.07;3.58;;;10.40;99.90;;;;;;5018670;28;20651;-67
2022/12/22 12:48:23;;;;;;;13.05;3.78;;;10.40;99.90;;;;;;5034224;28;20045;-67
2022/12/22 12:50:49;;;;;;;15.88;3.30;;;10.10;1.00;;;;;;5031416;28;20114;-67
2022/12/22 12:53:17;;;;;;;14.55;3.30;;;10.00;99.90;;;;;;5019231;28;20410;-67
2022/12/22 12:55:48;;;;;;;11.60;3.35;;;9.80;99.90;;;;;;5034643;28;20451;-67
2022/12/22 12:58:34;;;;;;;13.98;3.88;;;9.50;99.90;;;;;;5032962;28;20069;-67
2022/12/22 13:01:01;;;;;;;13.15;3.97;;;9.20;97.90;;;;;;5065595;28;20387;-67
2022/12/22 13:03:27;;;;;;;13.15;3.22;;;8.90;99.90;;;;;;5017232;28;20110;-68
2022/12/22 13:05:55;;;;;;;13.57;3.70;;;8.90;99.90;;;;;;5031536;28;20044;-68
2022/12/22 13:08:55;;;;;;;17.45;4.20;;;8.80;99.90;;;;;;5066814;28;20071;-67
2022/12/22 13:11:34;;;;;;;15.40;3.75;;;8.70;99.90;;;;;;5034648;28;20076;-68
2022/12/22 13:14:01;;;;;;;16.27;3.33;;;8.70;99.90;;;;;;5017294;28;20123;-68
2022/12/22 13:16:30;;;;;;;14.98;2.85;;;8.50;99.90;;;;;;5036186;28;20107;-67
2022/12/22 13:18:58;;;;;;;13.27;3.08;;;8.50;99.90;;;;;;5034058;28;20581;-68
2022/12/22 13:21:28;;;;;;;13.27;2.92;;;8.60;99.90;;;;;;5064008;28;20057;-67
2022/12/22 13:23:54;;;;;;;14.48;3.20;;;8.60;99.90;;;;;;5034984;28;20060;-68
2022/12/22 13:26:31;;;;;;;13.30;2.72;;;8.70;99.90;;;;;;5034953;28;20068;-67
2022/12/22 13:29:28;;;;;;;15.40;2.80;;;8.80;99.90;;;;;;5032570;28;20080;-67
2022/12/22 13:32:12;;;;;;;12.50;2.50;;;8.80;99.90;;;;;;5022363;28;20601;-67
2022/12/22 13:34:45;;;;;;;21.45;2.97;;;8.70;99.90;;;;;;5067405;28;20841;-68
2022/12/22 13:37:18;;;;;;;14.80;2.65;;;8.60;99.90;;;;;;5015538;28;20049;-67
2022/12/22 13:40:02;;;;;;;;;;;8.50;99.90;;;;;;5066284;28;20337;-68
2022/12/22 13:42:29;;;;;;;;;;;8.40;99.90;;;;;;5035049;28;19924;-67
2022/12/22 13:44:55;;;;;;;12.52;2.35;;;8.30;99.90;;;;;;5034302;28;19924;-69
2022/12/22 13:47:21;;;;;;;13.75;2.30;;;8.40;99.90;;;;;;5034375;28;20044;-68
2022/12/22 13:49:47;;;;;;;17.13;2.50;;;8.50;99.90;;;;;;5017737;28;20506;-68
2022/12/22 13:52:16;;;;;;;18.92;3.22;;;8.20;99.90;;;;;;5015818;28;20044;-67
2022/12/22 13:54:44;;;;;;;15.05;2.83;;;8.20;99.90;;;;;;5015848;28;20044;-67
2022/12/22 13:57:19;;;;;;;11.63;2.47;;;8.30;99.90;;;;;;5067777;28;20504;-65
2022/12/22 13:59:48;;;;;;;13.88;2.90;;;8.40;99.90;;;;;;5015231;28;20518;-65
2022/12/22 14:02:19;;;;;;;14.00;2.40;;;8.30;99.90;;;;;;5037058;28;20510;-65
2022/12/22 14:05:04;;;;;;;15.90;2.45;;;8.40;99.90;;;;;;5039139;28;20124;-65
2022/12/22 14:07:30;;;;;;;13.82;2.13;;;8.20;99.90;;;;;;5019855;28;20114;-67
2022/12/22 14:09:56;;;;;;;14.80;2.03;;;8.40;99.90;;;;;;5018953;28;20041;-67
2022/12/22 14:12:30;;;;;;;17.40;2.20;;;8.20;99.90;;;;;;5023099;28;20333;-66
2022/12/22 14:14:57;;;;;;;17.83;2.83;;;8.10;99.90;;;;;;5007585;28;20044;-65
2022/12/22 14:17:29;;;;;;;12.88;2.22;;;8.10;99.90;;;;;;5038546;28;20075;-66
2022/12/22 14:20:00;;;;;;;15.73;2.75;;;8.20;99.90;;;;;;5038563;28;20331;-66
2022/12/22 14:22:31;;;;;;;16.27;2.60;;;8.10;99.90;;;;;;5038332;28;20537;-66
2022/12/22 14:25:06;;;;;;;17.33;2.15;;;8.10;99.90;;;;;;5037062;28;20044;-66
2022/12/22 14:27:44;;;;;;;14.75;2.28;;;8.20;99.90;;;;;;5039634;28;20056;-65
2022/12/22 14:30:32;;;;;;;17.25;3.17;;;8.40;99.90;;;;;;5037088;28;20055;-66
2022/12/22 14:33:15;;;;;;;12.10;2.65;;;8.20;99.90;;;;;;5021663;28;20490;-67
2022/12/22 14:35:41;;;;;;;15.13;2.50;;;8.50;99.90;;;;;;5069981;28;20044;-68
2022/12/22 14:38:21;;;;;;;17.90;2.60;;;8.50;99.90;;;;;;5020280;28;20037;-68
2022/12/22 14:40:47;;;;;;;14.10;2.55;;;8.20;99.90;;;;;;5019155;28;20068;-66
2022/12/22 14:43:33;;;;;;;18.33;2.33;;;8.40;99.90;;;;;;5038074;28;20115;-67
2022/12/22 14:46:07;;;;;;;15.52;3.10;;;8.40;99.90;;;;;;5068949;28;20041;-67
2022/12/22 14:48:37;;;;;;;15.77;2.42;;;8.20;99.90;;;;;;5021295;28;20106;-67
2022/12/22 14:51:04;;;;;;;14.88;3.15;;;8.50;99.90;;;;;;5037898;28;20052;-66
2022/12/22 14:53:57;;;;;;;19.70;3.25;;;8.50;99.90;;;;;;5036957;28;20505;-66
2022/12/22 14:56:24;;;;;;;13.35;2.55;;;8.30;99.90;;;;;;5021896;28;20052;-66
2022/12/22 14:58:50;;;;;;;21.63;2.92;;;8.30;99.90;;;;;;5020554;28;20049;-66
2022/12/22 15:01:26;;;;;;;16.23;3.38;;;8.30;99.90;;;;;;5037334;28;20044;-66
2022/12/22 15:04:14;;;;;;;10.93;2.65;;;8.50;99.90;;;;;;5037225;28;20036;-66
2022/12/22 15:06:42;;;;;;;15.32;3.15;;;8.40;99.90;;;;;;5042652;28;20114;-65
2022/12/22 15:09:14;;;;;;;15.85;3.55;;;8.10;99.90;;;;;;5007106;28;20056;-66
2022/12/22 15:11:43;;;;;;;15.45;3.33;;;8.40;99.90;;;;;;5033847;28;20041;-65
2022/12/22 15:14:16;;;;;;;19.88;5.63;;;8.30;99.90;;;;;;5017640;28;20060;-65
2022/12/22 15:16:42;;;;;;;20.42;6.50;;;8.20;99.90;;;;;;5036134;28;20058;-65
2022/12/22 15:19:13;;;;;;;25.00;9.05;;;8.00;99.90;;;;;;5070179;28;20052;-66
2022/12/22 15:21:39;;;;;;;25.00;9.95;;;8.00;99.90;;;;;;5037563;28;20056;-66
2022/12/22 15:24:11;;;;;;;24.35;7.55;;;8.30;99.90;;;;;;5037438;28;20521;-65
2022/12/22 15:26:37;;;;;;;21.00;5.85;;;8.20;99.90;;;;;;5067096;28;20040;-66
2022/12/22 15:29:02;;;;;;;15.20;4.03;;;7.90;99.90;;;;;;5035967;28;20287;-65
2022/12/22 15:31:28;;;;;;;12.48;2.78;;;8.00;99.90;;;;;;5020367;28;20161;-66
2022/12/22 15:33:58;;;;;;;15.13;3.33;;;8.10;99.90;;;;;;5003567;28;20044;-65
2022/12/22 15:36:23;;;;;;;18.45;2.78;;;7.90;99.90;;;;;;5038373;28;20041;-64
2022/12/22 15:38:50;;;;;;;20.92;3.20;;;7.90;99.90;;;;;;5021376;28;21009;-65
2022/12/22 15:41:15;;;;;;;12.93;2.75;;;8.00;99.90;;;;;;5037364;28;20056;-64
2022/12/22 15:43:41;;;;;;;11.45;2.83;;;7.90;99.90;;;;;;5038070;28;20033;-64
2022/12/22 15:46:12;;;;;;;14.57;2.30;;;7.90;99.90;;;;;;5036614;28;20048;-66
2022/12/22 15:48:38;;;;;;;16.02;2.42;;;8.10;99.90;;;;;;5067507;28;20132;-65
2022/12/22 15:51:07;;;;;;;12.38;2.40;;;7.80;99.90;;;;;;5037241;28;20045;-64
2022/12/22 15:53:35;;;;;;;14.75;2.70;;;7.80;99.90;;;;;;5037893;28;20036;-65
2022/12/22 15:56:01;;;;;;;12.70;2.38;;;7.80;99.90;;;;;;5035783;28;20048;-65
2022/12/22 15:58:34;;;;;;;12.57;2.78;;;8.20;99.90;;;;;;5037213;28;20060;-64
2022/12/22 16:00:59;;;;;;;10.32;2.03;;;7.80;99.90;;;;;;5018590;28;20048;-65
2022/12/22 16:03:25;;;;;;;13.60;2.55;;;7.90;99.90;;;;;;5035512;28;20052;-64
2022/12/22 16:05:52;;;;;;;13.88;2.40;;;8.10;99.90;;;;;;5039038;28;20075;-64
2022/12/22 16:08:27;;;;;;;13.38;2.63;;;8.10;99.90;;;;;;5019841;28;20040;-65
2022/12/22 16:10:53;;;;;;;12.32;2.40;;;7.80;99.90;;;;;;5036339;28;20056;-65
2022/12/22 16:13:24;;;;;;;10.10;2.70;;;8.20;99.90;;;;;;5068709;28;20045;-65
2022/12/22 16:15:50;;;;;;;6.28;2.05;;;7.70;99.90;;;;;;5035164;28;20167;-65
2022/12/22 16:18:16;;;;;;;9.85;2.17;;;7.80;99.90;;;;;;5037110;28;20040;-64
2022/12/22 16:20:43;;;;;;;10.20;3.10;;;8.10;99.90;;;;;;5018787;28;20053;-64
2022/12/22 16:23:27;;;;;;;10.82;2.25;;;7.80;99.90;;;;;;5038313;28;20082;-67
2022/12/22 16:25:54;;;;;;;15.65;3.13;;;7.80;99.90;;;;;;5036039;28;20782;-65
2022/12/22 16:28:23;;;;;;;14.68;3.45;;;7.80;99.90;;;;;;5018492;28;20052;-65
2022/12/22 16:30:50;;;;;;;15.35;3.92;;;8.20;99.90;;;;;;5035727;28;20045;-65
2022/12/22 16:33:17;;;;;;;12.48;4.20;;;8.20;99.90;;;;;;5032017;28;20040;-65